Tiempo atmosférico en la estación meteorológica de Pola de Somiedo, Asturias (668 m.)



Fecha
DESCASC
Temp. máxima en grados centígrados (hora)
DESCASC
Temp. mínima en grados centígrados (hora)
DESCASC
Temp. media en grados centígrados
DESCASC
Racha de viento máxima en m/sg (hora)
DESCASC
Velocidad máxima media en intervalos de 10 minutos(hora)
DESCASC
Precipitaciones diarias en mm
DESCASC
Precipitaciones de 00:00 a 06:00 en mm
DESCASC
Precipitaciones de 06:00 a 12:00 en mm
DESCASC
Precipitaciones de 12:00 a 18:00 en mm
DESCASC
Precipitaciones de 18:00 a 24:00 en mm
DESCASC
08-12-2019 14.7 (15:30) 1.4 (23:59) 8 7.78 (15:50) 4.44 (15:50) 1.8 0 1.6 0.2 0
07-12-2019 14.8 (14:30) 2.5 (01:20) 8.7 3.33 (15:50) 1.39 (15:10) 0 0 0 0 0
06-12-2019 12.6 (14:40) 0.4 (04:40) 6.5 1.94 (06:40) 1.11 (20:50) 0 0 0 0 0
05-12-2019 11.6 (13:30) -0.9 (-00:0) 5.4 4.72 (13:40) 2.22 (13:40) 0 0 0 0 0
04-12-2019 8.7 (14:30) -2.2 (-00:0) 3.2 4.72 (14:00) 1.94 (14:20) 0 0 0 0 0
03-12-2019 7.6 (14:40) -1.9 (-00:0) 2.8 4.44 (14:00) 2.22 (13:20) 0 0 0 0 0
02-12-2019 6.3 (12:20) 0.5 (00:00) 3.4 7.78 (14:10) 2.5 (14:00) 11.8 0.8 6.2 4.4 0.4
01-12-2019 9 (02:10) 4.3 (00:00) 6.7 9.72 (20:20) 3.89 (03:10) 12.4 0 0.8 3.8 7.8
30-11-2019 14.5 (04:40) 5.5 (00:00) 10 11.11 (11:30) 5 (11:30) 7 1.6 5.2 0.2 0
29-11-2019 13.1 (14:10) 2.2 (00:00) 7.7 8.61 (23:50) 3.61 (23:59) 0 0 0 0 0
28-11-2019 14.5 (22:30) 8.8 (00:00) 11.7 10.28 (01:50) 3.61 (22:20) 8.8 0 0 7.2 1.6
27-11-2019 13.1 (12:10) 7.7 (00:00) 10.4 12.22 (03:40) 6.11 (03:40) 3 0 0 1.4 1.6
26-11-2019 16.3 (03:00) 10.4 (00:00) 13.3 18.61 (16:30) 7.78 (12:40) 5.2 0 0 1.8 3.4
25-11-2019 15.6 (12:50) 7.1 (00:00) 11.4 11.11 (23:20) 5.28 (23:20) 0 0 0 0 0
24-11-2019 13 (20:00) 2.3 (00:00) 7.6 11.11 (18:20) 4.44 (14:30) 0.4 0.2 0 0 0.2
23-11-2019 7.8 (21:00) 4.6 (00:00) 6.2 15 (04:30) 6.39 (04:40) 26.2 16.8 4.4 4 1
22-11-2019 13.1 (12:30) 6.5 (00:00) 9.8 19.17 (09:10) 8.06 (09:10) 21 2.2 11 0.4 7.4
21-11-2019 11.2 (14:00) 2.9 (00:00) 7 10.83 (23:59) 4.72 (23:59) 0.4 0.4 0 0 0
20-11-2019 9.9 (15:40) 3.5 (00:00) 6.7 8.33 (13:10) 4.17 (13:10) 0 0 0 0 0
19-11-2019 10.3 (13:40) -1.1 (-00:0) 4.6 7.78 (12:30) 3.61 (14:30) 0.2 0 0 0 0.2
18-11-2019 6.5 (15:30) 0.8 (00:00) 3.7 2.5 (16:00) 1.11 (16:00) 9.6 6 3.6 0 0
17-11-2019 7.5 (15:20) 1.8 (00:00) 4.6 7.78 (15:20) 3.61 (15:30) 15.2 2.2 2.2 2.2 8.6
16-11-2019 5.1 (15:00) 0.2 (00:00) 2.6 7.5 (15:00) 2.5 (15:00) 2.8 2.8 0 0 0
15-11-2019 2.4 (00:00) 0.1 (00:00) 1.3 4.44 (08:40) 1.94 (08:50) 47.6 17.8 6.4 11.8 11.6
14-11-2019 6.8 (00:00) 1 (00:00) 3.9 13.06 (18:20) 4.44 (00:50) 24.4 4 1.2 7.2 12
13-11-2019 11.6 (00:30) 6.8 (00:00) 9.2 12.78 (21:00) 4.44 (21:00) 6.8 5.6 0 0 1.2
12-11-2019 12.8 (19:10) 4.6 (00:00) 8.7 15.28 (18:50) 5 (18:50) -- -- -- 0.4 10
11-11-2019 9.7 (12:30) 3.9 (00:00) 6.8 8.61 (11:10) 3.33 (11:00) -- -- -- -- --
10-11-2019 5.7 (00:40) 2.5 (00:00) 4.1 6.94 (02:50) 2.22 (02:50) -- -- -- -- --

Gráficas

Temp. máximas Temp. mínimas Temp. medias Precipitaciones Rachas de viento máximas Velocidades máximas media en intervalos de 10 minutos

Datos horarios

Fecha y hora oficial Temperatura (ºC) Velocidad del viento (km/h) Dirección del viento Racha (km/h) Dirección de racha Precipitación (mm) Presión (hPa) Tendencia (hPa) Humedad (%)
2019-12-09 23:00:00 1 3 Sur 7 Sudoeste 0 -- -- 97
2019-12-09 22:00:00 1.5 2 Sudoeste 6 Sudoeste 0 -- -- 98
2019-12-09 21:00:00 1.9 3 Sur 5 Sur 0 -- -- 97
2019-12-09 20:00:00 2.5 3 Sur 5 Sudoeste 0 -- -- 96
2019-12-09 19:00:00 3.7 0 Calma 4 Oeste 0 -- -- 93
2019-12-09 18:00:00 5.4 3 Sudoeste 5 Oeste 0 -- -- 90
2019-12-09 17:00:00 7.6 3 Sur 5 Sur 0 -- -- 86
2019-12-09 16:00:00 8.9 4 Norte 11 Norte 0 -- -- 77
2019-12-09 15:00:00 10 6 Norte 18 Norte 0 -- -- 74
2019-12-09 14:00:00 11 8 Norte 19 Noroeste 0 -- -- 68
2019-12-09 13:00:00 10.8 4 Norte 8 Norte 0 -- -- 69
2019-12-09 12:00:00 8.2 4 Sur 7 Oeste 0 -- -- 79
2019-12-09 11:00:00 4.5 3 Nordeste 9 Sur 0 -- -- 89
2019-12-09 10:00:00 1.9 2 Sur 7 Sudoeste 0 -- -- 95
2019-12-09 09:00:00 1.3 4 Sur 8 Sur 0 -- -- 95
2019-12-09 08:00:00 1.4 4 Sur 9 Oeste 0 -- -- 92
2019-12-09 07:00:00 1.7 2 Norte 10 Sudoeste 0 -- -- 89
2019-12-09 06:00:00 1.2 5 Sudoeste 15 Oeste 0 -- -- 89
2019-12-09 05:00:00 0.7 4 Sur 12 Sudoeste 0 -- -- 92
2019-12-09 04:00:00 0.6 4 Sur 9 Este 0 -- -- 93
2019-12-09 03:00:00 0.6 2 Sudoeste 8 Sudeste 0 -- -- 93
2019-12-09 02:00:00 0.8 3 Sur 9 Oeste 0 -- -- 94
2019-12-09 01:00:00 1 4 Sudoeste 9 Sudoeste 0 -- -- 96
2019-12-09 00:00:00 1.4 4 Sur 7 Sudeste 0 -- -- 99
2019-12-08 23:00:00 2 2 Sur 5 Sur 0 -- -- 99
2019-12-08 22:00:00 3.1 3 Sudoeste 6 Sudoeste 0 -- -- 99
2019-12-08 21:00:00 4 2 Sudeste 5 Sur 0 -- -- 99
2019-12-08 20:00:00 4.9 0 Calma 5 Sudoeste 0 -- -- 98
2019-12-08 19:00:00 6.2 2 Nordeste 5 Sudeste 0 -- -- 95
2019-12-08 18:00:00 8.4 3 Sudoeste 5 Sur 0 -- -- 91
2019-12-08 17:00:00 11 4 Norte 21 Nordeste 0 -- -- 87
2019-12-08 16:00:00 14.4 9 Nordeste 28 Nordeste 0 -- -- 68
2019-12-08 15:00:00 14.4 11 Nordeste 21 Nordeste 0 -- -- 76
2019-12-08 14:00:00 13.1 4 Norte 10 Noroeste 0 -- -- 100
2019-12-08 13:00:00 12 3 Norte 11 Norte 0.2 -- -- 100
2019-12-08 12:00:00 11.3 4 Norte 13 Oeste 0 -- -- 100
2019-12-08 11:00:00 10.3 5 Sudoeste 9 Oeste 1 -- -- 100
2019-12-08 10:00:00 9.1 0 Calma 5 Noroeste 0.6 -- -- 100
2019-12-08 09:00:00 8.4 0 Calma 6 Sudoeste 0 -- -- 100
2019-12-08 08:00:00 8.1 4 Sur 6 Oeste 0 -- -- 100
2019-12-08 07:00:00 7.6 2 Norte 5 Oeste 0 -- -- 100
2019-12-08 06:00:00 7.3 4 Sudoeste 7 Sudeste 0 -- -- 100
2019-12-08 05:00:00 6.7 2 Norte 8 Sudeste 0 -- -- 100
2019-12-08 04:00:00 6.1 3 Norte 9 Este 0 -- -- 100
2019-12-08 03:00:00 5.6 3 Sur 5 Sur 0 -- -- 99
2019-12-08 02:00:00 6.2 3 Nordeste 10 Sudeste 0 -- -- 99
2019-12-08 01:00:00 5.3 4 Sur 10 Este 0 -- -- 100
2019-12-08 00:00:00 4.3 3 Sur 7 Sudoeste 0 -- -- 100
2019-12-07 23:00:00 4.4 3 Sur 5 Sudeste 0 -- -- 99
2019-12-07 22:00:00 5.5 3 Sur 6 Sudeste 0 -- -- 98
2019-12-07 21:00:00 6.3 2 Sudeste 5 Sudoeste 0 -- -- 96
2019-12-07 20:00:00 7.9 2 Norte 6 Sudoeste 0 -- -- 93
2019-12-07 19:00:00 10 3 Nordeste 6 Sudoeste 0 -- -- 91
2019-12-07 18:00:00 12.1 0 Calma 10 Noroeste 0 -- -- 85
2019-12-07 17:00:00 13.4 4 Norte 10 Noroeste 0 -- -- 79
2019-12-07 16:00:00 14.2 4 Noroeste 12 Norte 0 -- -- 73
2019-12-07 15:00:00 14.3 5 Norte 11 Noroeste 0 -- -- 74
2019-12-07 14:00:00 14 0 Calma 5 Este 0 -- -- 71
2019-12-07 13:00:00 12.5 3 Nordeste 8 Norte 0 -- -- 76
2019-12-07 12:00:00 10.5 2 Nordeste 5 Noroeste 0 -- -- 90
2019-12-07 11:00:00 7.9 0 Calma 4 Este 0 -- -- 100
2019-12-07 10:00:00 6.3 2 Sudoeste 5 Sur 0 -- -- 100
2019-12-07 09:00:00 4.7 2 Sur 7 Sur 0 -- -- 100
2019-12-07 08:00:00 4 2 Sur 4 Sur 0 -- -- 100
2019-12-07 07:00:00 4.7 0 Calma 5 Sur 0 -- -- 100
2019-12-07 06:00:00 4.6 2 Sur 6 Sur 0 -- -- 100
2019-12-07 05:00:00 3.2 3 Sur 5 Sur 0 -- -- 99
2019-12-07 04:00:00 4 3 Sur 6 Sur 0 -- -- 99
2019-12-07 03:00:00 3.2 2 Sur 6 Sur 0 -- -- 100
2019-12-07 02:00:00 2.8 4 Sur 8 Sur 0 -- -- 99
2019-12-07 01:00:00 2.6 3 Sur 6 Sur 0 -- -- 98
2019-12-07 00:00:00 3.5 3 Sur 5 Sudoeste 0 -- -- 98
2019-12-06 23:00:00 3.6 2 Sur 7 Sudoeste 0 -- -- 100
2019-12-06 22:00:00 2.8 2 Sur 6 Sudoeste 0 -- -- 99
2019-12-06 21:00:00 3 3 Sur 6 Sur 0 -- -- 99
2019-12-06 20:00:00 3.8 0 Calma 5 Sur 0 -- -- 97
2019-12-06 19:00:00 4.8 3 Sur 5 Sur 0 -- -- 95
2019-12-06 18:00:00 6.7 3 Sur 5 Sur 0 -- -- 93
2019-12-06 17:00:00 8.2 0 Calma 5 Sur 0 -- -- 88
2019-12-06 16:00:00 11.8 0 Calma 4 Este 0 -- -- 79
2019-12-06 15:00:00 12.5 2 Norte 6 Norte 0 -- -- 68
2019-12-06 14:00:00 11.2 2 Norte 5 Nordeste 0 -- -- 73
2019-12-06 13:00:00 10 0 Calma 4 Sur 0 -- -- 75
2019-12-06 12:00:00 8.4 2 Norte 5 Norte 0 -- -- 97
2019-12-06 11:00:00 6 3 Este 7 Norte 0 -- -- 100
2019-12-06 10:00:00 3.4 3 Sur 5 Sur 0 -- -- 100
2019-12-06 09:00:00 2.5 3 Sur 5 Sur 0 -- -- 100
2019-12-06 08:00:00 2 3 Sur 6 Sur 0 -- -- 100
2019-12-06 07:00:00 1.9 2 Sur 7 Sur 0 -- -- 100
2019-12-06 06:00:00 1 2 Sudeste 4 Sudeste 0 -- -- 100
2019-12-06 05:00:00 0.5 3 Sur 4 Sur 0 -- -- 100
2019-12-06 04:00:00 0.8 3 Sur 6 Sur 0 -- -- 100
2019-12-06 03:00:00 0.5 2 Sur 5 Sur 0 -- -- 100
2019-12-06 02:00:00 0.7 0 Calma 4 Sur 0 -- -- 100
2019-12-06 01:00:00 1.1 0 Calma 4 Sudeste 0 -- -- 100
2019-12-06 00:00:00 1.9 0 Calma 5 Sur 0 -- -- 99
2019-12-05 23:00:00 2.9 0 Calma 4 Sur 0 -- -- 98
2019-12-05 22:00:00 3.4 0 Calma 5 Sur 0 -- -- 99
2019-12-05 21:00:00 3.6 2 Sur 4 Sur 0 -- -- 94
2019-12-05 20:00:00 5.6 0 Calma 9 Sur 0 -- -- 88
2019-12-05 19:00:00 6.9 3 Sur 10 Sudoeste 0 -- -- 87
2019-12-05 18:00:00 8 4 Noroeste 11 Noroeste 0 -- -- 91
2019-12-05 17:00:00 9.2 6 Noroeste 13 Noroeste 0 -- -- 86
2019-12-05 16:00:00 10.2 6 Norte 12 Norte 0 -- -- 81
2019-12-05 15:00:00 10.5 4 Norte 13 Norte 0 -- -- 80
2019-12-05 14:00:00 10.7 6 Norte 17 Norte 0 -- -- 79
2019-12-05 13:00:00 10.3 3 Este 8 Sur 0 -- -- 80
2019-12-05 12:00:00 7.5 2 Nordeste 5 Norte 0 -- -- 88
2019-12-05 11:00:00 4.8 0 Calma 7 Sudeste 0 -- -- 100
2019-12-05 10:00:00 3.2 0 Calma 5 Oeste 0 -- -- 100
2019-12-05 09:00:00 3 2 Sur 8 Este 0 -- -- 100
2019-12-05 08:00:00 2.5 3 Sur 6 Noroeste 0 -- -- 100
2019-12-05 07:00:00 2.6 2 Sudeste 8 Sudeste 0 -- -- 100
2019-12-05 06:00:00 2.3 2 Sudeste 5 Sudoeste 0 -- -- 100
2019-12-05 05:00:00 2 0 Calma 9 Oeste 0 -- -- 100
2019-12-05 04:00:00 1.5 3 Nordeste 6 Sudeste 0 -- -- 100
2019-12-05 03:00:00 0.8 0 Calma 4 Este 0 -- -- 100
2019-12-05 02:00:00 0.1 3 Sur 7 Sudoeste 0 -- -- 100
2019-12-05 01:00:00 -0.7 2 Sur 9 Sudoeste 0 -- -- 100
2019-12-05 00:00:00 -0.8 0 Calma 3 Sur 0 -- -- 100
2019-12-04 23:00:00 -0.6 2 Sudoeste 4 Sudoeste 0 -- -- 100
2019-12-04 22:00:00 -0.3 0 Calma 3 Sudoeste 0 -- -- 100
2019-12-04 21:00:00 0 0 Calma 3 Sur 0 -- -- 99
2019-12-04 20:00:00 0.6 0 Calma 3 Sudeste 0 -- -- 97
2019-12-04 19:00:00 1.6 2 Sudoeste 4 Sudoeste 0 -- -- 95
2019-12-04 18:00:00 3 2 Sudoeste 3 Oeste 0 -- -- 91
2019-12-04 17:00:00 4.6 2 Sur 9 Sur 0 -- -- 85
2019-12-04 16:00:00 6 5 Sudoeste 11 Noroeste 0 -- -- 79
2019-12-04 15:00:00 7.6 4 Noroeste 15 Norte 0 -- -- 68
2019-12-04 14:00:00 8.4 7 Norte 17 Norte 0 -- -- 66
2019-12-04 13:00:00 7.1 6 Norte 14 Noroeste 0 -- -- 71
2019-12-04 12:00:00 4.8 0 Calma 9 Sudoeste 0 -- -- 91
2019-12-04 11:00:00 0.5 2 Nordeste 4 Sur 0 -- -- 100
2019-12-04 10:00:00 -0.6 3 Sur 6 Sudoeste 0 -- -- 100
2019-12-04 09:00:00 -1 0 Calma 4 Sudeste 0 -- -- 100
2019-12-04 08:00:00 -0.9 2 Norte 5 Sur 0 -- -- 100
2019-12-04 07:00:00 -0.8 2 Sur 5 Sur 0 -- -- 100
2019-12-04 06:00:00 -1.4 0 Calma 8 Sudoeste 0 -- -- 100
2019-12-04 05:00:00 -1.8 2 Noroeste 5 Sur 0 -- -- 100
2019-12-04 04:00:00 -1.8 2 Sur 7 Sur 0 -- -- 100
2019-12-04 03:00:00 -2 0 Calma 8 Sur 0 -- -- 100
2019-12-04 02:00:00 -2.1 4 Norte 8 Sudoeste 0 -- -- 100
2019-12-04 01:00:00 -2.1 2 Nordeste 6 Noroeste 0 -- -- 100
2019-12-04 00:00:00 -1.9 3 Sur 6 Sudeste 0 -- -- 100
2019-12-03 23:00:00 -1.6 2 Sur 5 Sur 0 -- -- 100
2019-12-03 22:00:00 -1.3 3 Sur 5 Sudeste 0 -- -- 100
2019-12-03 21:00:00 -1 0 Calma 4 Sudeste 0 -- -- 100
2019-12-03 20:00:00 -0.5 0 Calma 3 Sudoeste 0 -- -- 99
2019-12-03 19:00:00 0.2 0 Calma 3 Sudoeste 0 -- -- 98
2019-12-03 18:00:00 1.3 0 Calma 4 Oeste 0 -- -- 95
2019-12-03 17:00:00 2.6 0 Calma 8 Sur 0 -- -- 91
2019-12-03 16:00:00 4 5 Sur 10 Sur 0 -- -- 83
2019-12-03 15:00:00 6.2 6 Sudoeste 12 Norte 0 -- -- 74
2019-12-03 14:00:00 6.5 6 Noroeste 16 Noroeste 0 -- -- 79
2019-12-03 13:00:00 5.3 6 Norte 11 Norte 0 -- -- 85
2019-12-03 12:00:00 3.1 2 Sur 6 Sudeste 0 -- -- 94
2019-12-03 11:00:00 -0.4 2 Norte 5 Norte 0 -- -- 100
2019-12-03 10:00:00 -1.4 3 Sur 4 Este 0 -- -- 100
2019-12-03 09:00:00 -1.5 0 Calma 4 Sur 0 -- -- 100
2019-12-03 08:00:00 -1.3 2 Sur 5 Sudoeste 0 -- -- 100
2019-12-03 07:00:00 -1 3 Sur 10 Sudoeste 0 -- -- 100
2019-12-03 06:00:00 -1 3 Sur 6 Oeste 0 -- -- 100
2019-12-03 05:00:00 -0.7 4 Sudeste 7 Sur 0 -- -- 100
2019-12-03 04:00:00 -0.7 0 Calma 6 Sudeste 0 -- -- 100
2019-12-03 03:00:00 -0.4 2 Sur 5 Sur 0 -- -- 100
2019-12-03 02:00:00 -0.4 0 Calma 7 Oeste 0 -- -- 100
2019-12-03 01:00:00 0 2 Sudeste 8 Oeste 0 -- -- 100
2019-12-03 00:00:00 0.5 3 Sudeste 10 Este 0 -- -- 100
2019-12-02 23:00:00 1.2 2 Norte 11 Sudoeste 0 -- -- 100
2019-12-02 22:00:00 2.1 0 Calma 8 Noroeste 0 -- -- 99
2019-12-02 21:00:00 3.6 3 Sudoeste 5 Sudoeste 0 -- -- 98
2019-12-02 20:00:00 4.4 3 Norte 10 Noroeste 0.2 -- -- 98
2019-12-02 19:00:00 4.8 3 Norte 21 Norte 0.2 -- -- 96
2019-12-02 18:00:00 5.4 4 Noroeste 16 Norte 0.8 -- -- 93
2019-12-02 17:00:00 5.7 3 Norte 10 Noroeste 0.8 -- -- 94
2019-12-02 16:00:00 6 3 Noroeste 8 Noroeste 0.6 -- -- 95
2019-12-02 15:00:00 5.9 4 Norte 28 Noroeste 0.8 -- -- 92
2019-12-02 14:00:00 6 9 Norte 24 Norte 0.6 -- -- 90
2019-12-02 13:00:00 6.1 5 Norte 18 Nordeste 0.8 -- -- 92
2019-12-02 12:00:00 6.2 5 Norte 20 Nordeste 1.6 -- -- 93
2019-12-02 11:00:00 5.9 4 Norte 11 Noroeste 1.6 -- -- 97
2019-12-02 10:00:00 5.2 2 Norte 8 Nordeste 2 -- -- 100
2019-12-02 09:00:00 4.8 4 Norte 8 Noroeste 0.6 -- -- 100
2019-12-02 08:00:00 4.7 3 Norte 8 Noroeste 0.2 -- -- 100
2019-12-02 07:00:00 4.6 0 Calma 4 Sudeste 0.2 -- -- 100
2019-12-02 06:00:00 4.5 0 Calma 5 Sudeste 0 -- -- 100
2019-12-02 05:00:00 4.6 0 Calma 3 Sudoeste 0.2 -- -- 100
2019-12-02 04:00:00 4.7 0 Calma 4 Sur 0 -- -- 98
2019-12-02 03:00:00 5 0 Calma 15 Noroeste 0.2 -- -- 94
2019-12-02 02:00:00 4.8 3 Noroeste 17 Norte 0 -- -- 93
2019-12-02 01:00:00 4.3 6 Norte 11 Norte 0.4 -- -- 98
2019-12-02 00:00:00 4.3 3 Norte 14 Norte 0.4 -- -- 96
2019-12-01 23:00:00 4.3 4 Norte 16 Norte 1.2 -- -- 96
2019-12-01 22:00:00 4.7 7 Norte 23 Norte 1.6 -- -- 94
2019-12-01 21:00:00 5.2 10 Norte 35 Norte 1.8 -- -- 94
2019-12-01 20:00:00 5.9 12 Norte 27 Norte 0.8 -- -- 94
2019-12-01 19:00:00 6.4 11 Norte 28 Noroeste 2 -- -- 93
2019-12-01 18:00:00 6.4 9 Norte 21 Norte 1.6 -- -- 93
2019-12-01 17:00:00 7 4 Noroeste 9 Noroeste 0.2 -- -- 96
2019-12-01 16:00:00 7 0 Calma 7 Noroeste 0 -- -- 96
2019-12-01 15:00:00 6.9 4 Norte 11 Noroeste 0.4 -- -- 95
2019-12-01 14:00:00 7.3 4 Norte 11 Norte 0.4 -- -- 94
2019-12-01 13:00:00 7.2 3 Norte 10 Norte 1.2 -- -- 93
2019-12-01 12:00:00 7.2 4 Norte 10 Noroeste 0.6 -- -- 95
2019-12-01 11:00:00 6.7 0 Calma 3 Nordeste 0 -- -- 96
2019-12-01 10:00:00 6.1 0 Calma 4 Sudoeste 0 -- -- 98
2019-12-01 09:00:00 5.7 2 Sur 3 Sudoeste 0.2 -- -- 98
2019-12-01 08:00:00 5.7 2 Sur 3 Sudoeste 0 -- -- 97
2019-12-01 07:00:00 6.2 0 Calma 4 Noroeste 0 -- -- 93
2019-12-01 06:00:00 7.1 2 Este 7 Norte 0 -- -- 87
2019-12-01 05:00:00 8.1 3 Sur 18 Sudoeste 0 -- -- 74
2019-12-01 04:00:00 7.6 5 Nordeste 30 Sudeste 0 -- -- 77
2019-12-01 03:00:00 8.6 12 Sur 30 Sur 0 -- -- 70
2019-12-01 02:00:00 8.9 6 Sur 26 Sudoeste 0 -- -- 67
2019-12-01 01:00:00 7.9 4 Sur 23 Sudeste 0 -- -- 77
2019-12-01 00:00:00 8.5 9 Sur 25 Sur 0 -- -- 74
2019-11-30 23:00:00 8.6 9 Sur 21 Sur 0 -- -- 71
2019-11-30 22:00:00 7 7 Sur 17 Sudoeste 0 -- -- 81
2019-11-30 21:00:00 5.6 0 Calma 5 Norte 0 -- -- 92
2019-11-30 20:00:00 6.1 4 Norte 7 Norte 0 -- -- 86
2019-11-30 19:00:00 6.8 3 Sudoeste 6 Sudoeste 0 -- -- 86
2019-11-30 18:00:00 7.8 3 Oeste 14 Nordeste 0 -- -- 78
2019-11-30 17:00:00 8.1 2 Sur 9 Oeste 0 -- -- 79
2019-11-30 16:00:00 10.1 7 Norte 30 Nordeste 0 -- -- 58
2019-11-30 15:00:00 11.8 6 Este 21 Sudeste 0.2 -- -- 48
2019-11-30 14:00:00 12.3 9 Sudeste 28 Sudeste 0 -- -- 50
2019-11-30 13:00:00 11.5 8 Sudeste 19 Sur 0 -- -- 59
2019-11-30 12:00:00 9.7 3 Este 40 Nordeste 0.2 -- -- 88
2019-11-30 11:00:00 9.6 6 Sur 17 Sudeste 0.4 -- -- 96
2019-11-30 10:00:00 9.8 3 Sur 38 Nordeste 1.2 -- -- 94
2019-11-30 09:00:00 10.3 4 Norte 20 Nordeste 2 -- -- 98
2019-11-30 08:00:00 9.7 2 Sudeste 8 Sudoeste 0.4 -- -- 100
2019-11-30 07:00:00 10.4 3 Noroeste 7 Nordeste 1 -- -- 99
2019-11-30 06:00:00 11.4 3 Sur 8 Oeste 1 -- -- 95
2019-11-30 05:00:00 13.5 2 Sudoeste 28 Sur 0 -- -- 80
2019-11-30 04:00:00 14 11 Sur 35 Este 0.2 -- -- 74
2019-11-30 03:00:00 12.4 5 Oeste 24 Sudoeste 0.2 -- -- 82
2019-11-30 02:00:00 11.7 4 Norte 28 Sur 0.2 -- -- 85
2019-11-30 01:00:00 12.5 4 Sudeste 30 Sudoeste 0 -- -- 78
2019-11-30 00:00:00 12.6 13 Sur 31 Sur 0 -- -- 65
2019-11-29 23:00:00 11.7 9 Sudoeste 24 Sudeste 0 -- -- 65
2019-11-29 22:00:00 5.6 2 Norte 6 Sur 0 -- -- 98
2019-11-29 21:00:00 5.6 2 Sur 5 Sur 0 -- -- 98
2019-11-29 20:00:00 5.6 0 Calma 4 Sudeste 0 -- -- 96
2019-11-29 19:00:00 6 0 Calma 6 Sur 0 -- -- 93
2019-11-29 18:00:00 7 0 Calma 5 Sur 0 -- -- 87
2019-11-29 17:00:00 8.5 2 Sudoeste 6 Sudoeste 0 -- -- 78
2019-11-29 16:00:00 10.6 3 Sur 15 Sudoeste 0 -- -- 65
2019-11-29 15:00:00 11.4 2 Oeste 11 Noroeste 0 -- -- 66
2019-11-29 14:00:00 13 3 Norte 7 Norte 0 -- -- 61
2019-11-29 13:00:00 10.9 0 Calma 4 Nordeste 0 -- -- 61
2019-11-29 12:00:00 8.1 2 Norte 5 Norte 0 -- -- 80
2019-11-29 11:00:00 4.2 0 Calma 5 Nordeste 0 -- -- 100
2019-11-29 10:00:00 2.4 2 Sur 6 Sudoeste 0 -- -- 100
2019-11-29 09:00:00 2.3 2 Sur 9 Sur 0 -- -- 100
2019-11-29 08:00:00 2.8 2 Sur 5 Oeste 0 -- -- 100
2019-11-29 07:00:00 3.6 2 Sudeste 6 Sudoeste 0 -- -- 100
2019-11-29 06:00:00 4.2 3 Sur 6 Sur 0 -- -- 100
2019-11-29 05:00:00 4.7 0 Calma 5 Sur 0 -- -- 100
2019-11-29 04:00:00 5.2 0 Calma 4 Sudeste 0 -- -- 100
2019-11-29 03:00:00 6.1 0 Calma 5 Oeste 0 -- -- 99
2019-11-29 02:00:00 7.5 0 Calma 8 Este 0 -- -- 97
2019-11-29 01:00:00 9.1 2 Sur 8 Oeste 0 -- -- 95
2019-11-29 00:00:00 11 4 Sur 8 Oeste 0 -- -- 91
2019-11-28 23:00:00 14.2 8 Sur 29 Este 0 -- -- 72
2019-11-28 22:00:00 13.8 9 Nordeste 25 Nordeste 0.2 -- -- 75
2019-11-28 21:00:00 11.2 5 Sudoeste 32 Este 0 -- -- 97
2019-11-28 20:00:00 9.8 6 Sudeste 15 Sudeste 0.2 -- -- 100
2019-11-28 19:00:00 9.4 4 Oeste 9 Oeste 1.2 -- -- 100
2019-11-28 18:00:00 9.6 0 Calma 5 Sudoeste 2.4 -- -- 99
2019-11-28 17:00:00 10.2 2 Norte 7 Sudoeste 1.2 -- -- 98
2019-11-28 16:00:00 10.9 0 Calma 4 Oeste 1 -- -- 95
2019-11-28 15:00:00 11.9 2 Sudoeste 4 Noroeste 1 -- -- 91
2019-11-28 14:00:00 12.2 3 Sur 9 Norte 0.2 -- -- 95
2019-11-28 13:00:00 12.7 2 Este 10 Norte 1.4 -- -- 91
2019-11-28 12:00:00 13.3 3 Norte 10 Noroeste 0 -- -- 85
2019-11-28 11:00:00 11.6 0 Calma 6 Noroeste 0 -- -- 95
2019-11-28 10:00:00 10.6 0 Calma 10 Oeste 0 -- -- 94
2019-11-28 09:00:00 10 4 Sur 10 Oeste 0 -- -- 93
2019-11-28 08:00:00 9.7 3 Noroeste 15 Sudoeste 0 -- -- 91
2019-11-28 07:00:00 10.8 3 Sudeste 16 Este 0 -- -- 85
2019-11-28 06:00:00 10.5 2 Oeste 9 Oeste 0 -- -- 88
2019-11-28 05:00:00 10.3 3 Sur 13 Sur 0 -- -- 87
2019-11-28 04:00:00 9.7 3 Sudoeste 9 Oeste 0 -- -- 88
2019-11-28 03:00:00 11.8 2 Noroeste 21 Noroeste 0 -- -- 77
2019-11-28 02:00:00 12.5 5 Nordeste 37 Este 0 -- -- 66
2019-11-28 01:00:00 11.7 4 Nordeste 32 Nordeste 0 -- -- 78
2019-11-28 00:00:00 8.8 2 Sudoeste 14 Oeste 0 -- -- 94
2019-11-27 23:00:00 8.6 3 Sur 13 Sur 0.2 -- -- 97
2019-11-27 22:00:00 8.2 5 Sur 12 Sudoeste 0.2 -- -- 99
2019-11-27 21:00:00 7.7 0 Calma 12 Sudeste 0.6 -- -- 98
2019-11-27 20:00:00 7.8 3 Sudeste 8 Este 0.2 -- -- 98
2019-11-27 19:00:00 8 0 Calma 6 Sudoeste 0.4 -- -- 95
2019-11-27 18:00:00 8.9 3 Sur 9 Nordeste 0 -- -- 89
2019-11-27 17:00:00 9.9 3 Noroeste 19 Nordeste 0 -- -- 79
2019-11-27 16:00:00 9.7 13 Nordeste 36 Nordeste 1 -- -- 74
2019-11-27 15:00:00 11.1 6 Nordeste 14 Nordeste 0.2 -- -- 74
2019-11-27 14:00:00 10.8 2 Sur 35 Nordeste 0.2 -- -- 83
2019-11-27 06:00:00 11 7 Este 22 Este 0 -- -- 54
2019-11-27 05:00:00 12.2 12 Sudeste 35 Sudeste 0 -- -- 54
2019-11-27 04:00:00 11.5 13 Nordeste 44 Nordeste 0 -- -- 57
2019-11-27 03:00:00 11.4 17 Nordeste 40 Nordeste 0 -- -- 64
2019-11-27 02:00:00 10.6 6 Este 34 Este 0 -- -- 67
2019-11-27 01:00:00 11.1 9 Este 31 Este 0 -- -- 63
2019-11-27 00:00:00 10.6 3 Oeste 46 Sudeste 0 -- -- 59
2019-11-26 23:00:00 10.7 7 Sur 36 Sudeste 0 -- -- 63
2019-11-26 22:00:00 11.5 13 Sudeste 35 Sudeste 0 -- -- 56
2019-11-26 21:00:00 12 14 Sudeste 54 Este 0 -- -- 51
2019-11-26 20:00:00 12 12 Sudeste 53 Nordeste 1.6 -- -- 62
2019-11-26 19:00:00 11 5 Oeste 22 Sur 1.8 -- -- 82
2019-11-26 18:00:00 10.8 5 Noroeste 23 Este 1.4 -- -- 86
2019-11-26 17:00:00 13.6 18 Sudeste 67 Sudeste 0.4 -- -- 68
2019-11-26 16:00:00 15.2 27 Sudeste 58 Sudeste 0 -- -- 53
2019-11-26 15:00:00 15 11 Sur 56 Sudeste 0 -- -- 50
2019-11-26 14:00:00 15.9 19 Sur 46 Sudeste 0 -- -- 49
2019-11-26 13:00:00 15.5 23 Sudeste 61 Sur 0 -- -- 50
2019-11-26 12:00:00 15.6 25 Sudeste 58 Sudeste 0 -- -- 51
2019-11-26 11:00:00 15.1 17 Sudeste 51 Sudeste 0 -- -- 53
2019-11-26 10:00:00 15.2 17 Sudeste 57 Sudeste 0 -- -- 60
2019-11-26 09:00:00 15.5 20 Sudeste 51 Sudeste 0 -- -- 60
2019-11-26 08:00:00 15.3 14 Sudeste 44 Sudeste 0 -- -- 67
2019-11-26 07:00:00 14.9 14 Sudeste 40 Sudeste 0 -- -- 70
2019-11-26 06:00:00 14.7 11 Sur 53 Sudeste 0 -- -- 72
2019-11-26 05:00:00 16.2 16 Sudeste 58 Sur 0 -- -- 65
2019-11-26 04:00:00 15.8 18 Sudeste 43 Sudeste 0 -- -- 66
2019-11-26 03:00:00 16.3 17 Sudeste 58 Sudeste 0 -- -- 62
2019-11-26 02:00:00 15.4 12 Sudeste 37 Sudeste 0 -- -- 66
2019-11-26 01:00:00 15 14 Sur 40 Sur 0 -- -- 61
2019-11-26 00:00:00 13.9 12 Sudoeste 40 Sudoeste 0 -- -- 58
2019-11-25 23:00:00 13.5 17 Sur 36 Sudoeste 0 -- -- 54
2019-11-25 22:00:00 8 2 Norte 6 Norte 0 -- -- 86
2019-11-25 21:00:00 7.1 3 Norte 6 Sudoeste 0 -- -- 87
2019-11-25 20:00:00 8.9 2 Sudeste 22 Sudoeste 0 -- -- 78
2019-11-25 19:00:00 12.4 6 Sur 26 Sur 0 -- -- 61
2019-11-25 18:00:00 11.2 3 Noroeste 15 Sudoeste 0 -- -- 71
2019-11-25 17:00:00 12.8 4 Sur 15 Sur 0 -- -- 60
2019-11-25 16:00:00 13.7 6 Sur 21 Sur 0 -- -- 57
2019-11-25 15:00:00 14.7 9 Sur 18 Sur 0 -- -- 53
2019-11-25 14:00:00 15.3 6 Sudoeste 15 Oeste 0 -- -- 54
2019-11-25 13:00:00 15.6 7 Sur 16 Sur 0 -- -- 52
2019-11-25 12:00:00 13.4 4 Sudoeste 18 Sudeste 0 -- -- 66
2019-11-25 11:00:00 9.5 0 Calma 5 Este 0 -- -- 90
2019-11-25 10:00:00 8.3 2 Este 12 Oeste 0 -- -- 90
2019-11-25 09:00:00 8.4 5 Oeste 21 Este 0 -- -- 88
2019-11-25 08:00:00 8.5 3 Noroeste 6 Nordeste 0 -- -- 91
2019-11-25 07:00:00 9.4 2 Noroeste 6 Norte 0 -- -- 88
2019-11-25 06:00:00 10.3 4 Sur 10 Sudoeste 0 -- -- 83
2019-11-25 05:00:00 13 6 Sur 23 Este 0 -- -- 65
2019-11-25 04:00:00 11.6 4 Sur 27 Norte 0 -- -- 80
2019-11-25 03:00:00 11.8 4 Sur 15 Nordeste 0 -- -- 79
2019-11-25 02:00:00 9.1 4 Noroeste 14 Oeste 0 -- -- 92
2019-11-25 01:00:00 9.5 5 Sur 14 Sudeste 0 -- -- 90
2019-11-25 00:00:00 9.4 4 Norte 8 Sudoeste 0 -- -- 93
2019-11-24 23:00:00 10 3 Sudoeste 6 Norte 0 -- -- 90
2019-11-24 22:00:00 11.7 3 Sudeste 21 Sudoeste 0 -- -- 78
2019-11-24 21:00:00 12.1 2 Sur 29 Sudeste 0 -- -- 75
2019-11-24 20:00:00 13 13 Sur 37 Este 0 -- -- 68
2019-11-24 19:00:00 12.5 12 Sur 40 Sudeste 0.2 -- -- 71
2019-11-24 18:00:00 12.4 12 Sur 35 Este 0 -- -- 68
2019-11-24 17:00:00 12.2 10 Sur 32 Sur 0 -- -- 67
2019-11-24 16:00:00 12.3 13 Sur 25 Sur 0 -- -- 69
2019-11-24 15:00:00 11.3 13 Sur 32 Sudoeste 0 -- -- 72
2019-11-24 14:00:00 11.6 10 Sur 31 Sudoeste 0 -- -- 68
2019-11-24 13:00:00 11.2 9 Sur 26 Sur 0 -- -- 71
2019-11-24 12:00:00 8 6 Sudoeste 21 Sudoeste 0 -- -- 86
2019-11-24 11:00:00 5.5 4 Sur 6 Sudoeste 0 -- -- 98
2019-11-24 10:00:00 4.3 3 Noroeste 8 Oeste 0 -- -- 100
2019-11-24 09:00:00 3.3 4 Sur 8 Sudeste 0 -- -- 100
2019-11-24 08:00:00 2.5 3 Sudoeste 8 Sudeste 0 -- -- 100
2019-11-24 07:00:00 2.5 2 Oeste 8 Oeste 0 -- -- 99
2019-11-24 06:00:00 3.7 3 Sur 13 Este 0 -- -- 99
2019-11-24 05:00:00 4.7 3 Sudeste 10 Oeste 0 -- -- 100
2019-11-24 04:00:00 4.4 3 Oeste 10 Oeste 0 -- -- 100
2019-11-24 03:00:00 4.6 3 Norte 11 Sudoeste 0 -- -- 100
2019-11-24 02:00:00 4.9 3 Sudoeste 5 Sudeste 0.2 -- -- 100
2019-11-24 01:00:00 5.1 3 Norte 7 Norte 0 -- -- 100
2019-11-24 00:00:00 5.4 3 Sudeste 8 Oeste 0.2 -- -- 98
2019-11-23 23:00:00 5.7 3 Sur 11 Sudoeste 0 -- -- 96
2019-11-23 22:00:00 6.5 3 Norte 21 Nordeste 0 -- -- 92
2019-11-23 21:00:00 7.8 12 Nordeste 27 Nordeste 0 -- -- 71
2019-11-23 20:00:00 7 12 Nordeste 28 Este 0.4 -- -- 80
2019-11-23 19:00:00 5.8 2 Nordeste 13 Sur 0.4 -- -- 98
2019-11-23 18:00:00 6.6 3 Sudoeste 30 Nordeste 0 -- -- 93
2019-11-23 17:00:00 6.3 4 Sudeste 12 Sudoeste 1.2 -- -- 95
2019-11-23 16:00:00 6.7 4 Nordeste 12 Sur 0 -- -- 98
2019-11-23 15:00:00 6.6 3 Noroeste 12 Nordeste 0.8 -- -- 95
2019-11-23 14:00:00 6.4 0 Calma 14 Nordeste 1 -- -- 97
2019-11-23 13:00:00 6 3 Nordeste 9 Sudoeste 1 -- -- 96
2019-11-23 12:00:00 5.5 3 Sudeste 7 Noroeste 1.4 -- -- 98
2019-11-23 11:00:00 5.2 4 Norte 15 Norte 1.8 -- -- 98
2019-11-23 10:00:00 4.9 3 Norte 9 Noroeste 0.4 -- -- 99
2019-11-23 09:00:00 4.6 2 Oeste 12 Norte 0.6 -- -- 98
2019-11-23 08:00:00 4.9 5 Norte 19 Este 0.2 -- -- 92
2019-11-23 07:00:00 4.9 5 Norte 35 Este 0 -- -- 92
2019-11-23 06:00:00 5.2 4 Norte 38 Nordeste 0 -- -- 90
2019-11-23 05:00:00 6.1 10 Nordeste 54 Nordeste 0.8 -- -- 83
2019-11-23 04:00:00 5.3 5 Norte 19 Este 2.4 -- -- 94
2019-11-23 03:00:00 5.3 5 Nordeste 13 Sur 4.6 -- -- 93
2019-11-23 02:00:00 5.8 5 Sudeste 24 Este 5.4 -- -- 90
2019-11-23 01:00:00 6.1 11 Nordeste 27 Nordeste 3.6 -- -- 86
2019-11-23 00:00:00 6.5 2 Este 8 Nordeste 3 -- -- 98
2019-11-22 23:00:00 7.5 3 Oeste 22 Nordeste 1.6 -- -- 92
2019-11-22 22:00:00 7.8 5 Sudoeste 23 Este 1.4 -- -- 89
2019-11-22 21:00:00 8.4 5 Oeste 32 Este 0 -- -- 84
2019-11-22 20:00:00 8 8 Sur 27 Este 1 -- -- 87
2019-11-22 19:00:00 8.1 8 Sudoeste 29 Sur 0.4 -- -- 81
2019-11-22 18:00:00 8.8 6 Sur 28 Sudeste 0 -- -- 78
2019-11-22 17:00:00 10.2 8 Sur 35 Sudeste 0 -- -- 65
2019-11-22 16:00:00 10.5 13 Sudeste 35 Sudeste 0.2 -- -- 62
2019-11-22 15:00:00 10.9 0 Calma 10 Noroeste 0 -- -- 89
2019-11-22 14:00:00 11.4 3 Nordeste 17 Sudoeste 0.2 -- -- 84
2019-11-22 13:00:00 12.3 12 Sur 58 Sudeste 0 -- -- 69
2019-11-22 12:00:00 11.5 18 Sur 49 Sudeste 0 -- -- 68
2019-11-22 11:00:00 8.7 13 Sur 41 Sudoeste 4 -- -- 83
2019-11-22 10:00:00 8.4 20 Sur 69 Sur 4.2 -- -- 81
2019-11-22 09:00:00 9.2 24 Sur 61 Sudoeste 0 -- -- 72
2019-11-22 08:00:00 8 24 Sur 57 Sudoeste 0.4 -- -- 75
2019-11-22 07:00:00 7.3 23 Sur 56 Sudoeste 2.4 -- -- 81
2019-11-22 06:00:00 7.6 19 Sur 65 Sudoeste 1 -- -- 78
2019-11-22 05:00:00 6.9 18 Sur 53 Sudoeste 1.2 -- -- 79
2019-11-22 04:00:00 8.1 21 Sur 42 Sur 0 -- -- 68
2019-11-22 03:00:00 8 16 Sur 39 Sur 0 -- -- 67
2019-11-22 02:00:00 8.5 17 Sur 39 Sur 0 -- -- 59
2019-11-22 01:00:00 8.4 9 Sur 44 Sudeste 0 -- -- 59
2019-11-22 00:00:00 8.6 17 Sudeste 39 Sudeste 0 -- -- 55
2019-11-21 23:00:00 8.1 5 Sur 24 Sudeste 0 -- -- 62
2019-11-21 22:00:00 7.8 6 Sur 31 Sudeste 0 -- -- 67
2019-11-21 21:00:00 7.4 8 Sur 18 Este 0 -- -- 68
2019-11-21 20:00:00 5 4 Oeste 15 Sudeste 0 -- -- 82
2019-11-21 19:00:00 4.3 2 Sudoeste 11 Sudoeste 0 -- -- 84
2019-11-21 18:00:00 6.9 6 Sudoeste 18 Este 0 -- -- 69
2019-11-21 17:00:00 7.6 4 Sur 21 Sudoeste 0 -- -- 64
2019-11-21 16:00:00 9.1 9 Sudeste 24 Sudeste 0 -- -- 57
2019-11-21 15:00:00 9.9 9 Sur 23 Sudeste 0 -- -- 53
2019-11-21 14:00:00 11.2 9 Sur 24 Sudeste 0 -- -- 53
2019-11-21 13:00:00 10 3 Sudeste 21 Sur 0 -- -- 59
2019-11-21 12:00:00 9.3 6 Sur 15 Sur 0 -- -- 62
2019-11-21 11:00:00 6.4 5 Sur 13 Sur 0 -- -- 85
2019-11-21 10:00:00 4.2 3 Sudoeste 8 Sudeste 0 -- -- 100
2019-11-21 09:00:00 2.9 3 Sudoeste 6 Sur 0 -- -- 100
2019-11-21 08:00:00 2.9 3 Noroeste 9 Oeste 0 -- -- 100
2019-11-21 07:00:00 3.1 3 Sur 6 Sudoeste 0 -- -- 100
2019-11-21 06:00:00 3.7 2 Sudoeste 6 Oeste 0 -- -- 100
2019-11-21 05:00:00 4 2 Sudoeste 6 Sudoeste 0.4 -- -- 100
2019-11-21 04:00:00 3.2 0 Calma 5 Sudeste 0 -- -- 100
2019-11-21 03:00:00 3.6 0 Calma 6 Oeste 0 -- -- 99
2019-11-21 02:00:00 3.9 3 Nordeste 8 Norte 0 -- -- 98
2019-11-21 01:00:00 3.8 0 Calma 6 Sudeste 0 -- -- 98
2019-11-21 00:00:00 3.6 0 Calma 6 Norte 0 -- -- 99
2019-11-20 23:00:00 4 0 Calma 6 Norte 0 -- -- 99
2019-11-20 22:00:00 4.1 2 Sudoeste 5 Sur 0 -- -- 98
2019-11-20 21:00:00 4.8 0 Calma 5 Sudoeste 0 -- -- 96
2019-11-20 20:00:00 6.1 0 Calma 8 Sudoeste 0 -- -- 93
2019-11-20 19:00:00 6.5 2 Noroeste 9 Oeste 0 -- -- 84
2019-11-20 18:00:00 8.1 3 Sur 14 Sudeste 0 -- -- 70
2019-11-20 17:00:00 9.1 5 Sur 22 Sudeste 0 -- -- 60
2019-11-20 16:00:00 9.6 11 Sudeste 25 Sudeste 0 -- -- 61
2019-11-20 15:00:00 9.4 8 Sur 19 Sudoeste 0 -- -- 70
2019-11-20 14:00:00 9.3 13 Sur 30 Sudoeste 0 -- -- 69
2019-11-20 13:00:00 9.1 12 Sur 26 Sur 0 -- -- 70
2019-11-20 12:00:00 9 13 Sur 27 Sudeste 0 -- -- 70
2019-11-20 11:00:00 8.7 12 Sudoeste 21 Sur 0 -- -- 72
2019-11-20 10:00:00 8.6 7 Sur 21 Sur 0 -- -- 71
2019-11-20 09:00:00 7.2 6 Sudoeste 22 Sudoeste 0 -- -- 75
2019-11-20 08:00:00 6.9 6 Sur 21 Sudoeste 0 -- -- 77
2019-11-20 07:00:00 7.3 11 Sudoeste 22 Sudoeste 0 -- -- 75
2019-11-20 06:00:00 7.4 6 Sur 18 Sur 0 -- -- 76
2019-11-20 05:00:00 7.6 5 Sur 16 Sur 0 -- -- 77
2019-11-20 04:00:00 6.3 0 Calma 12 Oeste 0 -- -- 88
2019-11-20 03:00:00 7.8 6 Sudoeste 26 Sudoeste 0 -- -- 73
2019-11-20 02:00:00 7.6 11 Sudoeste 25 Sudoeste 0 -- -- 76
2019-11-20 01:00:00 7.4 8 Sudoeste 23 Sudoeste 0 -- -- 77
2019-11-20 00:00:00 7.3 11 Sur 25 Sur 0 -- -- 79
2019-11-19 23:00:00 6.1 0 Calma 17 Sudoeste -- -- -- 92
2019-11-19 22:00:00 7.2 8 Sudoeste 19 Sur 0 -- -- 79
2019-11-19 21:00:00 5.6 0 Calma 4 Sudoeste 0 -- -- 91
2019-11-19 20:00:00 6.5 0 Calma 14 Sudoeste 0 -- -- 84
2019-11-19 19:00:00 8.1 4 Sur 15 Sur 0 -- -- 67
2019-11-19 18:00:00 8.8 5 Sudoeste 22 Sudoeste 0 -- -- 59
2019-11-19 17:00:00 9.2 6 Sudoeste 21 Sur 0 -- -- 54
2019-11-19 16:00:00 9.5 10 Sur 24 Sudoeste 0 -- -- 51
2019-11-19 15:00:00 9.8 10 Sur 23 Sudoeste 0 -- -- 50
2019-11-19 14:00:00 10.1 10 Sudoeste 26 Sudoeste 0 -- -- 50
2019-11-19 13:00:00 9.6 12 Sudoeste 28 Sudoeste 0 -- -- 53
2019-11-19 12:00:00 6.6 9 Sur 24 Sudoeste 0 -- -- 71
2019-11-19 11:00:00 1.4 0 Calma 5 Este 0 -- -- 100
2019-11-19 10:00:00 0.2 2 Norte 7 Este 0 -- -- 100
2019-11-19 09:00:00 -0.8 2 Sur 5 Sudoeste 0 -- -- 100
2019-11-19 08:00:00 -0.9 2 Sur 5 Sur 0 -- -- 100
2019-11-19 07:00:00 -1 3 Sur 6 Sur 0 -- -- 100
2019-11-19 06:00:00 -1.1 0 Calma 5 Sur 0 -- -- 100
2019-11-19 05:00:00 -1 0 Calma 3 Sudoeste 0 -- -- 100
2019-11-19 04:00:00 -0.9 2 Sur 3 Sudeste 0 -- -- 100
2019-11-19 03:00:00 -0.5 0 Calma 3 Sur 0 -- -- 100
2019-11-19 02:00:00 -0.1 2 Sur 4 Sur 0 -- -- 100
2019-11-19 01:00:00 0.3 2 Sur 5 Sur 0 -- -- 100
2019-11-19 00:00:00 0.8 2 Sur 4 Sur 0 -- -- 100
2019-11-18 23:00:00 1.9 2 Sur 4 Sudoeste 0 -- -- 99
2019-11-18 22:00:00 3.6 0 Calma 4 Sudoeste 0 -- -- 100
2019-11-18 21:00:00 4 3 Sudoeste 5 Sur 0 -- -- 100
2019-11-18 20:00:00 4.1 0 Calma 4 Sudeste 0 -- -- 99
2019-11-18 19:00:00 4.5 2 Sur 5 Sudoeste 0 -- -- 98
2019-11-18 18:00:00 5.3 2 Sudoeste 5 Sudoeste 0 -- -- 96
2019-11-18 17:00:00 6.4 2 Oeste 8 Norte 0 -- -- 94
2019-11-18 16:00:00 6.4 4 Noroeste 9 Noroeste 0 -- -- 93
2019-11-18 15:00:00 6.4 0 Calma 4 Sudoeste 0 -- -- 91
2019-11-18 14:00:00 5.8 3 Sur 5 Sur 0 -- -- 93
2019-11-18 13:00:00 4.8 0 Calma 3 Norte 0 -- -- 98
2019-11-18 12:00:00 4 0 Calma 3 Sudoeste 0 -- -- 100
2019-11-18 11:00:00 3 0 Calma 4 Sur 0 -- -- 100
2019-11-18 10:00:00 2.2 0 Calma 4 Sur 0 -- -- 100
2019-11-18 09:00:00 1.5 0 Calma 6 Sudoeste 1.4 -- -- 100
2019-11-18 08:00:00 1.9 3 Sur 4 Sur 1.8 -- -- 100
2019-11-18 07:00:00 1.9 0 Calma 4 Sudoeste 0.4 -- -- 100
2019-11-18 06:00:00 1.9 0 Calma 4 Sur 0.6 -- -- 100
2019-11-18 05:00:00 1.9 0 Calma 5 Sudoeste 0.2 -- -- 100
2019-11-18 04:00:00 2.1 3 Sur 6 Sudoeste 2.2 -- -- 100
2019-11-18 03:00:00 2.3 0 Calma 4 Sudoeste 1.4 -- -- 100
2019-11-18 02:00:00 2.2 0 Calma 3 Este 0.8 -- -- 100
2019-11-18 01:00:00 2 2 Sur 4 Sudoeste 0.8 -- -- 100
2019-11-18 00:00:00 1.9 3 Sur 6 Sur 0.2 -- -- 100
2019-11-17 23:00:00 1.9 0 Calma 8 Noroeste 0.2 -- -- 100
2019-11-17 22:00:00 2.6 3 Noroeste 6 Noroeste 3.2 -- -- 100
2019-11-17 21:00:00 3.3 0 Calma 6 Oeste 2 -- -- 100
2019-11-17 20:00:00 3.3 0 Calma 6 Sudeste 1.6 -- -- 100
2019-11-17 19:00:00 3.6 3 Sur 6 Sudoeste 1.4 -- -- 99
2019-11-17 18:00:00 4.6 2 Sur 20 Este 1.6 -- -- 95
2019-11-17 17:00:00 6.7 8 Sudeste 22 Este 0.2 -- -- 77
2019-11-17 16:00:00 7.3 4 Nordeste 28 Nordeste 0 -- -- 73
2019-11-17 15:00:00 7.2 7 Nordeste 26 Nordeste 0.2 -- -- 76
2019-11-17 14:00:00 6.7 5 Norte 14 Nordeste 0.2 -- -- 93
2019-11-17 13:00:00 6.8 6 Norte 27 Nordeste 0 -- -- 93
2019-11-17 12:00:00 6.1 6 Nordeste 19 Nordeste 0.4 -- -- 100
2019-11-17 11:00:00 4.9 3 Sudoeste 8 Sudoeste 0.4 -- -- 100
2019-11-17 10:00:00 4.8 4 Sudoeste 10 Sur 0.2 -- -- 100
2019-11-17 09:00:00 5.6 4 Norte 22 Sudeste 0.2 -- -- 100
2019-11-17 08:00:00 3.7 5 Sur 15 Oeste 0.4 -- -- 100
2019-11-17 07:00:00 3.1 4 Sudoeste 14 Noroeste 0.6 -- -- 100
2019-11-17 06:00:00 2.8 3 Oeste 10 Este 0 -- -- 100
2019-11-17 05:00:00 2.3 3 Norte 7 Sudeste 1.8 -- -- 100
2019-11-17 04:00:00 2.1 0 Calma 9 Sudeste 0.4 -- -- 100
2019-11-17 03:00:00 2 3 Oeste 8 Sudeste 0 -- -- 100
2019-11-17 02:00:00 1.9 3 Sudoeste 9 Este 0 -- -- 100
2019-11-17 01:00:00 1.9 4 Sur 8 Sudeste 0 -- -- 100
2019-11-17 00:00:00 1.8 3 Sudoeste 7 Oeste 0 -- -- 100
2019-11-16 23:00:00 1.7 0 Calma 7 Oeste 0 -- -- 100
2019-11-16 22:00:00 1.7 2 Sur 8 Oeste 0 -- -- 100
2019-11-16 21:00:00 1.6 2 Sur 6 Sur 0 -- -- 100
2019-11-16 20:00:00 1.8 2 Sur 7 Sudoeste 0 -- -- 99
2019-11-16 19:00:00 2.2 3 Oeste 11 Nordeste 0 -- -- 98
2019-11-16 18:00:00 2.3 3 Sudoeste 8 Este 0 -- -- 98
2019-11-16 17:00:00 3.2 3 Sudeste 6 Oeste 0 -- -- 95
2019-11-16 16:00:00 4.9 3 Sur 24 Este 0 -- -- 82
2019-11-16 15:00:00 5.1 9 Este 27 Este 0 -- -- 79
2019-11-16 14:00:00 3.5 5 Nordeste 12 Nordeste 0 -- -- 100
2019-11-16 13:00:00 3.4 0 Calma 5 Nordeste 0 -- -- 100
2019-11-16 12:00:00 2.1 3 Sudoeste 9 Noroeste 0 -- -- 100
2019-11-16 11:00:00 1.3 4 Noroeste 7 Sudoeste 0 -- -- 100
2019-11-16 10:00:00 0.9 3 Norte 8 Sudoeste 0 -- -- 100
2019-11-16 09:00:00 0.5 3 Sudoeste 6 Sudeste 0 -- -- 100
2019-11-16 08:00:00 0.4 2 Sur 5 Oeste 0 -- -- 100
2019-11-16 07:00:00 0.3 3 Sudoeste 6 Oeste 0 -- -- 100
2019-11-16 06:00:00 0.3 0 Calma 4 Oeste 0 -- -- 100
2019-11-16 05:00:00 0.2 2 Noroeste 5 Noroeste 0.4 -- -- 100
2019-11-16 04:00:00 0.2 0 Calma 4 Sudeste 0 -- -- 100
2019-11-16 03:00:00 0.3 0 Calma 6 Sudoeste 1.4 -- -- 100
2019-11-16 02:00:00 0.2 2 Sudoeste 4 Este 0.8 -- -- 100
2019-11-16 01:00:00 0.3 3 Nordeste 9 Sudoeste 0.2 -- -- 100
2019-11-16 00:00:00 0.2 0 Calma 2 Este 1 -- -- 100
2019-11-15 23:00:00 0.2 0 Calma 3 Noroeste 1.8 -- -- 100
2019-11-15 22:00:00 0.1 0 Calma 2 Sudeste 2.6 -- -- 100
2019-11-15 21:00:00 0.2 0 Calma 4 Nordeste 1.6 -- -- 100
2019-11-15 20:00:00 0.2 0 Calma 3 Sur 2.6 -- -- 100
2019-11-15 19:00:00 0.1 0 Calma 2 Sudoeste 2 -- -- 100
2019-11-15 18:00:00 0.2 0 Calma 4 Noroeste 2.4 -- -- 100
2019-11-15 17:00:00 0.4 0 Calma 6 Oeste 3.6 -- -- 100
2019-11-15 16:00:00 0.7 0 Calma 6 Sur 2.4 -- -- 100
2019-11-15 15:00:00 1.3 3 Nordeste 10 Noroeste 2.6 -- -- 99
2019-11-15 14:00:00 2.2 0 Calma 6 Norte 0.2 -- -- 99
2019-11-15 13:00:00 1.5 4 Norte 10 Norte 0.6 -- -- 100
2019-11-15 12:00:00 1.4 4 Norte 11 Noroeste 0.4 -- -- 100
2019-11-15 11:00:00 0.8 0 Calma 5 Sudoeste 1 -- -- 100
2019-11-15 10:00:00 0.7 2 Sur 12 Noroeste 1.6 -- -- 100
2019-11-15 09:00:00 0.8 5 Norte 16 Norte 1.6 -- -- 100
2019-11-15 08:00:00 0.3 0 Calma 4 Este 0.4 -- -- 100
2019-11-15 07:00:00 0.2 0 Calma 4 Oeste 1.4 -- -- 100
2019-11-15 06:00:00 0.2 0 Calma 3 Oeste 2.4 -- -- 100
2019-11-15 05:00:00 0.2 0 Calma 2 Sur 3 -- -- 100
2019-11-15 04:00:00 0.2 0 Calma 4 Sudoeste 3 -- -- 100
2019-11-15 03:00:00 0.2 0 Calma 3 Sudoeste 4.2 -- -- 100
2019-11-15 02:00:00 0.3 0 Calma 3 Sur 2.2 -- -- 100
2019-11-15 01:00:00 0.8 0 Calma 4 Sur 3 -- -- 98
2019-11-15 00:00:00 2.4 0 Calma 14 Norte 2.8 -- -- 98
2019-11-14 23:00:00 3 7 Norte 32 Nordeste 3.8 -- -- 97
2019-11-14 22:00:00 3.2 3 Sudoeste 23 Nordeste 1.8 -- -- 98
2019-11-14 21:00:00 3.2 5 Norte 21 Norte 2.2 -- -- 97
2019-11-14 20:00:00 3.9 9 Norte 45 Nordeste 1 -- -- 92
2019-11-14 19:00:00 3.8 6 Norte 47 Nordeste 0.4 -- -- 94
2019-11-14 18:00:00 4.1 11 Norte 29 Norte 2 -- -- 93
2019-11-14 17:00:00 4.1 10 Norte 25 Norte 1.2 -- -- 93
2019-11-14 16:00:00 3.2 4 Este 11 Oeste 0.2 -- -- 99
2019-11-14 15:00:00 2 3 Norte 8 Sudeste 0.4 -- -- 100
2019-11-14 14:00:00 1 2 Noroeste 10 Sur 3 -- -- 97
2019-11-14 13:00:00 2.7 2 Sudoeste 10 Sudeste 0.4 -- -- 96
2019-11-14 12:00:00 1.7 2 Norte 13 Sudoeste 1.2 -- -- 95
2019-11-14 11:00:00 4.8 5 Sudoeste 21 Sudeste 0 -- -- 74
2019-11-14 10:00:00 4.1 3 Sudeste 11 Oeste 0 -- -- 83
2019-11-14 09:00:00 3.2 4 Oeste 20 Nordeste 0 -- -- 83
2019-11-14 08:00:00 3.1 10 Norte 31 Nordeste 0 -- -- 81
2019-11-14 07:00:00 2.2 5 Sudoeste 14 Este 0 -- -- 95
2019-11-14 06:00:00 3.1 6 Este 28 Este 0 -- -- 86
2019-11-14 05:00:00 4 11 Nordeste 33 Este 0 -- -- 72
2019-11-14 04:00:00 3.7 15 Nordeste 33 Este 0 -- -- 82
2019-11-14 03:00:00 4.6 4 Nordeste 22 Nordeste 0.8 -- -- 89
2019-11-14 02:00:00 4.9 10 Norte 27 Norte 1.6 -- -- 94
2019-11-14 01:00:00 6.5 9 Nordeste 35 Nordeste 1.6 -- -- 88
2019-11-14 00:00:00 6.8 2 Norte 35 Este 1.2 -- -- 96
2019-11-13 23:00:00 7.2 4 Sur 17 Este 0 -- -- 94
2019-11-13 22:00:00 9.2 6 Nordeste 39 Nordeste 0 -- -- 78
2019-11-13 21:00:00 10.1 16 Nordeste 46 Nordeste 0 -- -- 63
2019-11-13 20:00:00 9.7 4 Noroeste 44 Nordeste 0 -- -- 73
2019-11-13 19:00:00 8.5 5 Sur 18 Este 0 -- -- 79
2019-11-13 18:00:00 7.6 4 Sudeste 8 Sudoeste 0 -- -- 92
2019-11-13 17:00:00 8.5 3 Sudoeste 10 Oeste 0 -- -- 93
2019-11-13 16:00:00 9 2 Sur 10 Noroeste 0 -- -- 93
2019-11-13 15:00:00 9.8 7 Noroeste 16 Noroeste 0 -- -- 88
2019-11-13 14:00:00 10.6 3 Sudoeste 11 Sur 0 -- -- 79
2019-11-13 13:00:00 8.8 3 Noroeste 17 Norte 0 -- -- 95
2019-11-13 12:00:00 9.5 4 Noroeste 10 Noroeste 0 -- -- 93
2019-11-13 11:00:00 8.4 0 Calma 8 Norte 0 -- -- 98
2019-11-13 10:00:00 7.9 5 Norte 13 Norte 0 -- -- 100
2019-11-13 09:00:00 7.7 4 Noroeste 12 Noroeste 0 -- -- 100
2019-11-13 08:00:00 7.9 4 Noroeste 9 Noroeste 0 -- -- 100
2019-11-13 07:00:00 8.2 0 Calma 23 Norte 0 -- -- 100
2019-11-13 06:00:00 8.4 5 Noroeste 11 Noroeste 0 -- -- 100
2019-11-13 05:00:00 8.6 2 Norte 10 Noroeste 0 -- -- 99
2019-11-13 04:00:00 9 5 Noroeste 25 Norte 0.4 -- -- 98
2019-11-13 03:00:00 10.1 4 Norte 21 Nordeste 0 -- -- 99
2019-11-13 02:00:00 10.5 6 Norte 19 Norte 0 -- -- 99
2019-11-13 01:00:00 10.8 4 Oeste 31 Nordeste 5.2 -- -- 95
2019-11-13 00:00:00 10.5 3 Oeste 17 Norte 3.2 -- -- 100
2019-11-12 23:00:00 10.6 3 Sur 9 Sur 2 -- -- 100
2019-11-12 22:00:00 10.8 5 Sudoeste 16 Sudeste 0.4 -- -- 100
2019-11-12 21:00:00 11.2 3 Sudoeste 25 Este 2 -- -- 97
2019-11-12 20:00:00 12.5 6 Nordeste 32 Este 1.4 -- -- 87
2019-11-12 19:00:00 12.6 14 Nordeste 55 Nordeste 1 -- -- 86
2019-11-12 18:00:00 8.5 3 Sudeste 12 Oeste 0.4 -- -- 100
2019-11-12 17:00:00 8.4 3 Norte 6 Sur 0 -- -- 100
2019-11-12 16:00:00 8.8 2 Oeste 13 Sudoeste 0 -- -- 95
2019-11-12 15:00:00 9 3 Norte 18 Sudoeste 0 -- -- 93
2019-11-12 14:00:00 8.9 4 Sur 9 Sudoeste 0 -- -- 92
2019-11-12 13:00:00 8.6 0 Calma 6 Nordeste 0 -- -- 92
2019-11-12 12:00:00 8 0 Calma 6 Sudoeste 0 -- -- 93
2019-11-12 11:00:00 6.9 0 Calma -- -- -- -- -- 96
2019-11-12 10:00:00 5.8 2 Sudoeste 4 Oeste -- -- -- 100
2019-11-12 09:00:00 5.2 0 Calma 4 Sudoeste -- -- -- 100
2019-11-12 08:00:00 4.8 0 Calma 5 Sudeste -- -- -- 100
2019-11-12 07:00:00 4.7 2 Oeste 6 Sudoeste -- -- -- 100
2019-11-12 06:00:00 4.6 2 Noroeste 7 Oeste -- -- -- 100
2019-11-12 05:00:00 4.8 3 Norte 8 Sudeste -- -- -- 100
2019-11-12 04:00:00 4.9 3 Noroeste 7 Oeste -- -- -- 100
2019-11-12 03:00:00 4.9 0 Calma 4 Oeste -- -- -- 100
2019-11-12 02:00:00 4.8 0 Calma 6 Sudeste -- -- -- 100
2019-11-12 01:00:00 4.7 3 Sudoeste 6 Sudeste -- -- -- 100
2019-11-12 00:00:00 4.9 3 Sur 7 Noroeste -- -- -- 100
2019-11-11 23:00:00 4.7 2 Sudoeste 4 Sudoeste -- -- -- 100
2019-11-11 22:00:00 5.1 2 Norte 3 Norte -- -- -- 100
2019-11-11 21:00:00 5.2 0 Calma 3 Sudeste -- -- -- 99
2019-11-11 20:00:00 5.4 0 Calma 3 Sudoeste -- -- -- 96
2019-11-11 19:00:00 6.5 0 Calma 21 Norte -- -- -- 94
2019-11-11 18:00:00 7 4 Norte 13 Norte -- -- -- 94
2019-11-11 17:00:00 8 4 Norte 14 Noroeste -- -- -- 88
2019-11-11 16:00:00 8 6 Norte 18 Noroeste -- -- -- 89
2019-11-11 15:00:00 8.8 2 Noroeste 23 Nordeste -- -- -- 79
2019-11-11 14:00:00 8 10 Norte 29 Norte -- -- -- 88
2019-11-11 13:00:00 9.6 7 Norte 23 Norte -- -- -- 84
2019-11-11 12:00:00 9.3 7 Norte 31 Norte -- -- -- 92
2019-11-11 11:00:00 9 12 Norte 30 Nordeste -- -- -- 95
2019-11-11 10:00:00 9.2 9 Norte 23 Nordeste -- -- -- 100
2019-11-11 09:00:00 7.7 2 Sur 6 Sudoeste -- -- -- 100
2019-11-11 08:00:00 7.1 2 Norte 7 Oeste -- -- -- 100
2019-11-11 07:00:00 6.6 4 Oeste 9 Oeste -- -- -- 100
2019-11-11 06:00:00 6.2 3 Sur 6 Oeste -- -- -- 100
2019-11-11 05:00:00 5.9 0 Calma 5 Oeste -- -- -- 100
2019-11-11 04:00:00 5.6 0 Calma 6 Oeste -- -- -- 100
2019-11-11 03:00:00 5.2 2 Sur 5 Sudeste -- -- -- 100
2019-11-11 02:00:00 4.7 0 Calma 4 Sudoeste -- -- -- 100
2019-11-11 01:00:00 4.4 3 Sur 5 Sudoeste -- -- -- 100
2019-11-11 00:00:00 3.9 0 Calma 6 Sudoeste -- -- -- 100
2019-11-10 23:00:00 3.6 0 Calma 4 Sudoeste -- -- -- 100
2019-11-10 22:00:00 3.3 0 Calma 4 Sudeste -- -- -- 100
2019-11-10 21:00:00 3.2 0 Calma 4 Norte -- -- -- 100
2019-11-10 20:00:00 3.3 2 Sur 4 Sur -- -- -- 100
2019-11-10 19:00:00 3.4 0 Calma 2 Nordeste -- -- -- 100
2019-11-10 18:00:00 3.4 0 Calma 2 Sudeste -- -- -- 100
2019-11-10 17:00:00 3.4 0 Calma 3 Norte -- -- -- 99
2019-11-10 16:00:00 3.4 0 Calma 4 Noroeste -- -- -- 97
2019-11-10 15:00:00 3.5 0 Calma 10 Sudoeste -- -- -- 97
2019-11-10 14:00:00 3.8 0 Calma 9 Sur -- -- -- 97
2019-11-10 13:00:00 4.3 4 Sur 11 Norte -- -- -- 97
2019-11-10 12:00:00 4.9 3 Noroeste 23 Nordeste -- -- -- 95
2019-11-10 11:00:00 5.2 4 Norte 11 Norte -- -- -- 98
2019-11-10 10:00:00 4.9 6 Norte 17 Nordeste 0 -- -- 98
2019-11-10 09:00:00 4.2 4 Nordeste 13 Este 0 -- -- 100
2019-11-10 08:00:00 3.8 0 Calma 14 Norte 0 -- -- 100
2019-11-10 07:00:00 3.2 4 Norte 9 Nordeste 0 -- -- 100
2019-11-10 06:00:00 2.7 0 Calma 8 Este 0 -- -- 99
2019-11-10 05:00:00 2.6 0 Calma 9 Sur 0 -- -- 97
2019-11-10 04:00:00 3.1 3 Noroeste 10 Noroeste 0 -- -- 94
2019-11-10 03:00:00 4.1 5 Noroeste 25 Nordeste 0 -- -- 94
2019-11-10 02:00:00 4.7 5 Noroeste 12 Sudeste 0 -- -- 93
2019-11-10 01:00:00 5.4 8 Norte 18 Norte 0 -- -- 84
2019-11-10 00:00:00 5.2 3 Noroeste 16 Nordeste 0 -- -- 90